sensor_id;sensor_type;location;lat;lon;timestamp;P1;durP1;ratioP1;P2;durP2;ratioP2
36315;SDS011;22343;50.820;2.666;2023-07-22T00:02:42;14.63;;;9.68;;
36315;SDS011;22343;50.820;2.666;2023-07-22T00:05:28;17.13;;;10.38;;
36315;SDS011;22343;50.820;2.666;2023-07-22T00:08:12;17.77;;;10.10;;
36315;SDS011;22343;50.820;2.666;2023-07-22T00:10:57;16.92;;;9.98;;
36315;SDS011;22343;50.820;2.666;2023-07-22T00:13:41;14.77;;;10.13;;
36315;SDS011;22343;50.820;2.666;2023-07-22T00:16:28;15.45;;;9.82;;
36315;SDS011;22343;50.820;2.666;2023-07-22T00:19:13;15.70;;;9.48;;
36315;SDS011;22343;50.820;2.666;2023-07-22T00:21:59;13.70;;;9.07;;
36315;SDS011;22343;50.820;2.666;2023-07-22T00:24:45;16.00;;;9.75;;
36315;SDS011;22343;50.820;2.666;2023-07-22T00:27:29;14.73;;;8.93;;
36315;SDS011;22343;50.820;2.666;2023-07-22T00:30:15;16.30;;;9.45;;
36315;SDS011;22343;50.820;2.666;2023-07-22T00:33:00;15.07;;;9.00;;
36315;SDS011;22343;50.820;2.666;2023-07-22T00:35:49;14.80;;;9.05;;
36315;SDS011;22343;50.820;2.666;2023-07-22T00:38:38;13.73;;;9.45;;
36315;SDS011;22343;50.820;2.666;2023-07-22T00:41:25;15.77;;;8.75;;
36315;SDS011;22343;50.820;2.666;2023-07-22T00:44:11;15.43;;;9.15;;
36315;SDS011;22343;50.820;2.666;2023-07-22T00:46:56;15.27;;;9.57;;
36315;SDS011;22343;50.820;2.666;2023-07-22T00:49:43;14.90;;;9.00;;
36315;SDS011;22343;50.820;2.666;2023-07-22T00:52:32;15.30;;;8.60;;
36315;SDS011;22343;50.820;2.666;2023-07-22T00:55:18;15.13;;;8.47;;
36315;SDS011;22343;50.820;2.666;2023-07-22T00:58:04;17.75;;;9.10;;
36315;SDS011;22343;50.820;2.666;2023-07-22T01:00:50;12.93;;;8.43;;
36315;SDS011;22343;50.820;2.666;2023-07-22T01:03:35;12.52;;;8.20;;
36315;SDS011;22343;50.820;2.666;2023-07-22T01:06:21;13.95;;;8.23;;
36315;SDS011;22343;50.820;2.666;2023-07-22T01:09:06;11.27;;;7.83;;
36315;SDS011;22343;50.820;2.666;2023-07-22T01:11:52;12.30;;;8.25;;
36315;SDS011;22343;50.820;2.666;2023-07-22T01:14:40;15.93;;;8.68;;
36315;SDS011;22343;50.820;2.666;2023-07-22T01:17:26;14.30;;;8.80;;
36315;SDS011;22343;50.820;2.666;2023-07-22T01:20:11;13.30;;;8.43;;
36315;SDS011;22343;50.820;2.666;2023-07-22T01:22:57;14.70;;;8.70;;
36315;SDS011;22343;50.820;2.666;2023-07-22T01:25:43;14.18;;;7.68;;
36315;SDS011;22343;50.820;2.666;2023-07-22T01:28:28;11.15;;;7.80;;
36315;SDS011;22343;50.820;2.666;2023-07-22T01:31:14;13.30;;;7.67;;
36315;SDS011;22343;50.820;2.666;2023-07-22T01:33:58;9.70;;;7.22;;
36315;SDS011;22343;50.820;2.666;2023-07-22T01:36:47;15.00;;;7.90;;
36315;SDS011;22343;50.820;2.666;2023-07-22T01:39:32;14.33;;;8.60;;
36315;SDS011;22343;50.820;2.666;2023-07-22T01:42:17;13.90;;;8.70;;
36315;SDS011;22343;50.820;2.666;2023-07-22T01:45:03;12.35;;;8.27;;
36315;SDS011;22343;50.820;2.666;2023-07-22T01:47:51;12.50;;;8.27;;
36315;SDS011;22343;50.820;2.666;2023-07-22T01:50:35;11.83;;;7.90;;
36315;SDS011;22343;50.820;2.666;2023-07-22T01:53:21;12.90;;;8.13;;
36315;SDS011;22343;50.820;2.666;2023-07-22T01:56:07;13.83;;;8.10;;
36315;SDS011;22343;50.820;2.666;2023-07-22T01:58:54;11.20;;;7.33;;
36315;SDS011;22343;50.820;2.666;2023-07-22T02:01:39;11.73;;;8.10;;
36315;SDS011;22343;50.820;2.666;2023-07-22T02:04:25;12.80;;;7.77;;
36315;SDS011;22343;50.820;2.666;2023-07-22T02:07:11;13.47;;;8.07;;
36315;SDS011;22343;50.820;2.666;2023-07-22T02:09:56;13.77;;;8.23;;
36315;SDS011;22343;50.820;2.666;2023-07-22T02:12:42;12.47;;;7.60;;
36315;SDS011;22343;50.820;2.666;2023-07-22T02:15:27;16.07;;;8.83;;
36315;SDS011;22343;50.820;2.666;2023-07-22T02:18:13;13.48;;;8.07;;
36315;SDS011;22343;50.820;2.666;2023-07-22T02:20:59;11.23;;;7.77;;
36315;SDS011;22343;50.820;2.666;2023-07-22T02:23:43;12.13;;;7.87;;
36315;SDS011;22343;50.820;2.666;2023-07-22T02:26:28;14.57;;;8.20;;
36315;SDS011;22343;50.820;2.666;2023-07-22T02:29:12;16.13;;;8.00;;
36315;SDS011;22343;50.820;2.666;2023-07-22T02:31:57;12.60;;;8.10;;
36315;SDS011;22343;50.820;2.666;2023-07-22T02:34:43;17.17;;;8.00;;
36315;SDS011;22343;50.820;2.666;2023-07-22T02:37:28;15.47;;;8.50;;
36315;SDS011;22343;50.820;2.666;2023-07-22T02:40:13;12.47;;;7.60;;
36315;SDS011;22343;50.820;2.666;2023-07-22T02:42:59;12.33;;;8.20;;
36315;SDS011;22343;50.820;2.666;2023-07-22T02:45:44;13.53;;;8.03;;
36315;SDS011;22343;50.820;2.666;2023-07-22T02:48:30;13.43;;;8.53;;
36315;SDS011;22343;50.820;2.666;2023-07-22T02:51:15;15.23;;;8.80;;
36315;SDS011;22343;50.820;2.666;2023-07-22T02:54:00;15.03;;;7.87;;
36315;SDS011;22343;50.820;2.666;2023-07-22T02:56:46;10.90;;;7.97;;
36315;SDS011;22343;50.820;2.666;2023-07-22T02:59:31;14.53;;;7.90;;
36315;SDS011;22343;50.820;2.666;2023-07-22T03:02:18;13.83;;;7.80;;
36315;SDS011;22343;50.820;2.666;2023-07-22T03:05:09;13.67;;;8.23;;
36315;SDS011;22343;50.820;2.666;2023-07-22T03:07:55;13.67;;;7.57;;
36315;SDS011;22343;50.820;2.666;2023-07-22T03:10:39;14.07;;;8.07;;
36315;SDS011;22343;50.820;2.666;2023-07-22T03:13:24;10.63;;;7.53;;
36315;SDS011;22343;50.820;2.666;2023-07-22T03:16:09;11.27;;;7.67;;
36315;SDS011;22343;50.820;2.666;2023-07-22T03:18:54;11.27;;;7.20;;
36315;SDS011;22343;50.820;2.666;2023-07-22T03:21:38;10.53;;;7.50;;
36315;SDS011;22343;50.820;2.666;2023-07-22T03:24:22;12.67;;;7.50;;
36315;SDS011;22343;50.820;2.666;2023-07-22T03:27:07;11.53;;;7.57;;
36315;SDS011;22343;50.820;2.666;2023-07-22T03:29:51;10.63;;;7.17;;
36315;SDS011;22343;50.820;2.666;2023-07-22T03:32:36;12.93;;;7.57;;
36315;SDS011;22343;50.820;2.666;2023-07-22T03:35:20;13.73;;;7.90;;
36315;SDS011;22343;50.820;2.666;2023-07-22T03:38:04;10.87;;;7.90;;
36315;SDS011;22343;50.820;2.666;2023-07-22T03:40:49;11.47;;;8.03;;
36315;SDS011;22343;50.820;2.666;2023-07-22T03:43:33;12.77;;;7.80;;
36315;SDS011;22343;50.820;2.666;2023-07-22T03:46:17;14.57;;;7.67;;
36315;SDS011;22343;50.820;2.666;2023-07-22T03:49:02;13.33;;;8.10;;
36315;SDS011;22343;50.820;2.666;2023-07-22T03:51:46;14.60;;;7.30;;
36315;SDS011;22343;50.820;2.666;2023-07-22T03:54:30;11.97;;;7.80;;
36315;SDS011;22343;50.820;2.666;2023-07-22T03:57:15;13.23;;;7.67;;
36315;SDS011;22343;50.820;2.666;2023-07-22T03:59:59;15.83;;;8.10;;
36315;SDS011;22343;50.820;2.666;2023-07-22T04:02:44;14.33;;;7.60;;
36315;SDS011;22343;50.820;2.666;2023-07-22T04:05:28;16.17;;;7.40;;
36315;SDS011;22343;50.820;2.666;2023-07-22T04:08:12;14.27;;;8.03;;
36315;SDS011;22343;50.820;2.666;2023-07-22T04:10:57;13.40;;;7.80;;
36315;SDS011;22343;50.820;2.666;2023-07-22T04:13:41;15.70;;;8.00;;
36315;SDS011;22343;50.820;2.666;2023-07-22T04:16:26;11.43;;;7.50;;
36315;SDS011;22343;50.820;2.666;2023-07-22T04:19:10;12.80;;;7.40;;
36315;SDS011;22343;50.820;2.666;2023-07-22T04:21:55;11.33;;;7.03;;
36315;SDS011;22343;50.820;2.666;2023-07-22T04:24:39;10.47;;;7.57;;
36315;SDS011;22343;50.820;2.666;2023-07-22T04:27:23;12.10;;;7.60;;
36315;SDS011;22343;50.820;2.666;2023-07-22T04:30:08;14.03;;;7.13;;
36315;SDS011;22343;50.820;2.666;2023-07-22T04:32:53;13.67;;;7.17;;
36315;SDS011;22343;50.820;2.666;2023-07-22T04:35:37;11.73;;;7.47;;
36315;SDS011;22343;50.820;2.666;2023-07-22T04:38:22;13.50;;;6.93;;
36315;SDS011;22343;50.820;2.666;2023-07-22T04:41:06;14.13;;;7.00;;
36315;SDS011;22343;50.820;2.666;2023-07-22T04:43:51;12.07;;;6.60;;
36315;SDS011;22343;50.820;2.666;2023-07-22T04:46:35;14.27;;;7.17;;
36315;SDS011;22343;50.820;2.666;2023-07-22T04:49:19;13.60;;;6.80;;
36315;SDS011;22343;50.820;2.666;2023-07-22T04:52:04;11.40;;;6.30;;
36315;SDS011;22343;50.820;2.666;2023-07-22T04:54:48;12.50;;;6.53;;
36315;SDS011;22343;50.820;2.666;2023-07-22T04:57:34;11.30;;;6.70;;
36315;SDS011;22343;50.820;2.666;2023-07-22T05:00:21;9.60;;;6.30;;
36315;SDS011;22343;50.820;2.666;2023-07-22T05:03:06;13.37;;;6.67;;
36315;SDS011;22343;50.820;2.666;2023-07-22T05:05:51;12.10;;;6.80;;
36315;SDS011;22343;50.820;2.666;2023-07-22T05:08:35;9.53;;;6.60;;
36315;SDS011;22343;50.820;2.666;2023-07-22T05:11:21;10.73;;;6.80;;
36315;SDS011;22343;50.820;2.666;2023-07-22T05:14:07;13.83;;;6.97;;
36315;SDS011;22343;50.820;2.666;2023-07-22T05:16:51;11.77;;;6.73;;
36315;SDS011;22343;50.820;2.666;2023-07-22T05:19:35;11.57;;;6.87;;
36315;SDS011;22343;50.820;2.666;2023-07-22T05:22:20;12.43;;;7.00;;
36315;SDS011;22343;50.820;2.666;2023-07-22T05:25:04;11.27;;;6.93;;
36315;SDS011;22343;50.820;2.666;2023-07-22T05:27:50;12.63;;;6.53;;
36315;SDS011;22343;50.820;2.666;2023-07-22T05:30:34;11.40;;;6.20;;
36315;SDS011;22343;50.820;2.666;2023-07-22T05:33:18;10.13;;;6.80;;
36315;SDS011;22343;50.820;2.666;2023-07-22T05:36:03;11.63;;;6.60;;
36315;SDS011;22343;50.820;2.666;2023-07-22T05:38:48;10.60;;;6.60;;
36315;SDS011;22343;50.820;2.666;2023-07-22T05:41:33;11.20;;;6.90;;
36315;SDS011;22343;50.820;2.666;2023-07-22T05:44:17;12.50;;;6.73;;
36315;SDS011;22343;50.820;2.666;2023-07-22T05:47:02;11.87;;;7.07;;
36315;SDS011;22343;50.820;2.666;2023-07-22T05:49:46;16.43;;;7.00;;
36315;SDS011;22343;50.820;2.666;2023-07-22T05:52:31;9.03;;;6.40;;
36315;SDS011;22343;50.820;2.666;2023-07-22T05:55:15;15.63;;;7.23;;
36315;SDS011;22343;50.820;2.666;2023-07-22T05:57:59;11.43;;;6.57;;
36315;SDS011;22343;50.820;2.666;2023-07-22T06:00:49;12.60;;;6.90;;
36315;SDS011;22343;50.820;2.666;2023-07-22T06:03:35;8.67;;;6.80;;
36315;SDS011;22343;50.820;2.666;2023-07-22T06:06:19;12.33;;;7.00;;
36315;SDS011;22343;50.820;2.666;2023-07-22T06:09:04;13.90;;;6.93;;
36315;SDS011;22343;50.820;2.666;2023-07-22T06:11:48;11.87;;;6.20;;
36315;SDS011;22343;50.820;2.666;2023-07-22T06:14:32;14.40;;;6.63;;
36315;SDS011;22343;50.820;2.666;2023-07-22T06:17:17;10.87;;;6.30;;
36315;SDS011;22343;50.820;2.666;2023-07-22T06:20:02;7.83;;;5.93;;
36315;SDS011;22343;50.820;2.666;2023-07-22T06:22:48;10.18;;;6.07;;
36315;SDS011;22343;50.820;2.666;2023-07-22T06:25:33;11.55;;;6.00;;
36315;SDS011;22343;50.820;2.666;2023-07-22T06:28:17;7.73;;;5.77;;
36315;SDS011;22343;50.820;2.666;2023-07-22T06:31:01;9.20;;;5.90;;
36315;SDS011;22343;50.820;2.666;2023-07-22T06:33:46;10.03;;;5.97;;
36315;SDS011;22343;50.820;2.666;2023-07-22T06:36:30;12.40;;;6.57;;
36315;SDS011;22343;50.820;2.666;2023-07-22T06:39:14;9.30;;;6.00;;
36315;SDS011;22343;50.820;2.666;2023-07-22T06:41:59;11.03;;;6.53;;
36315;SDS011;22343;50.820;2.666;2023-07-22T06:44:43;9.17;;;6.13;;
36315;SDS011;22343;50.820;2.666;2023-07-22T06:47:27;12.43;;;6.38;;
36315;SDS011;22343;50.820;2.666;2023-07-22T06:50:12;9.90;;;6.13;;
36315;SDS011;22343;50.820;2.666;2023-07-22T06:52:56;9.90;;;6.18;;
36315;SDS011;22343;50.820;2.666;2023-07-22T06:55:51;8.48;;;6.32;;
36315;SDS011;22343;50.820;2.666;2023-07-22T06:58:35;9.88;;;5.70;;
36315;SDS011;22343;50.820;2.666;2023-07-22T07:01:19;8.93;;;5.70;;
36315;SDS011;22343;50.820;2.666;2023-07-22T07:04:04;8.20;;;5.32;;
36315;SDS011;22343;50.820;2.666;2023-07-22T07:06:49;9.57;;;5.60;;
36315;SDS011;22343;50.820;2.666;2023-07-22T07:09:34;9.98;;;5.38;;
36315;SDS011;22343;50.820;2.666;2023-07-22T07:12:19;6.55;;;5.00;;
36315;SDS011;22343;50.820;2.666;2023-07-22T07:15:04;6.38;;;4.75;;
36315;SDS011;22343;50.820;2.666;2023-07-22T07:17:48;8.15;;;4.82;;
36315;SDS011;22343;50.820;2.666;2023-07-22T07:20:33;11.75;;;4.68;;
36315;SDS011;22343;50.820;2.666;2023-07-22T07:23:17;7.80;;;4.38;;
36315;SDS011;22343;50.820;2.666;2023-07-22T07:26:01;8.43;;;4.15;;
36315;SDS011;22343;50.820;2.666;2023-07-22T07:28:46;6.07;;;3.95;;
36315;SDS011;22343;50.820;2.666;2023-07-22T07:31:32;4.95;;;3.90;;
36315;SDS011;22343;50.820;2.666;2023-07-22T07:34:16;9.40;;;4.40;;
36315;SDS011;22343;50.820;2.666;2023-07-22T07:37:00;6.53;;;3.72;;
36315;SDS011;22343;50.820;2.666;2023-07-22T07:39:45;6.13;;;3.70;;
36315;SDS011;22343;50.820;2.666;2023-07-22T07:42:29;7.22;;;4.05;;
36315;SDS011;22343;50.820;2.666;2023-07-22T07:45:13;6.93;;;3.88;;
36315;SDS011;22343;50.820;2.666;2023-07-22T07:47:58;5.40;;;3.38;;
36315;SDS011;22343;50.820;2.666;2023-07-22T07:50:42;5.75;;;3.70;;
36315;SDS011;22343;50.820;2.666;2023-07-22T07:53:27;5.85;;;3.50;;
36315;SDS011;22343;50.820;2.666;2023-07-22T07:56:11;4.80;;;2.88;;
36315;SDS011;22343;50.820;2.666;2023-07-22T07:58:56;6.18;;;3.28;;
36315;SDS011;22343;50.820;2.666;2023-07-22T08:01:40;4.72;;;2.90;;
36315;SDS011;22343;50.820;2.666;2023-07-22T08:04:25;6.65;;;3.40;;
36315;SDS011;22343;50.820;2.666;2023-07-22T08:07:09;4.32;;;3.05;;
36315;SDS011;22343;50.820;2.666;2023-07-22T08:09:54;4.40;;;3.08;;
36315;SDS011;22343;50.820;2.666;2023-07-22T08:12:38;5.15;;;3.03;;
36315;SDS011;22343;50.820;2.666;2023-07-22T08:15:23;6.95;;;3.83;;
36315;SDS011;22343;50.820;2.666;2023-07-22T08:18:07;4.05;;;2.83;;
36315;SDS011;22343;50.820;2.666;2023-07-22T08:20:52;5.85;;;3.40;;
36315;SDS011;22343;50.820;2.666;2023-07-22T08:23:37;3.97;;;2.90;;
36315;SDS011;22343;50.820;2.666;2023-07-22T08:26:21;5.05;;;3.15;;
36315;SDS011;22343;50.820;2.666;2023-07-22T08:29:05;4.25;;;2.92;;
36315;SDS011;22343;50.820;2.666;2023-07-22T08:31:50;4.82;;;3.20;;
36315;SDS011;22343;50.820;2.666;2023-07-22T08:34:34;4.93;;;2.95;;
36315;SDS011;22343;50.820;2.666;2023-07-22T08:37:18;3.63;;;2.90;;
36315;SDS011;22343;50.820;2.666;2023-07-22T08:40:03;4.50;;;3.13;;
36315;SDS011;22343;50.820;2.666;2023-07-22T08:42:49;4.88;;;2.80;;
36315;SDS011;22343;50.820;2.666;2023-07-22T08:45:34;5.30;;;2.80;;
36315;SDS011;22343;50.820;2.666;2023-07-22T08:48:21;4.70;;;3.40;;
36315;SDS011;22343;50.820;2.666;2023-07-22T08:51:24;4.10;;;2.75;;
36315;SDS011;22343;50.820;2.666;2023-07-22T08:54:12;4.13;;;2.63;;
36315;SDS011;22343;50.820;2.666;2023-07-22T08:56:57;5.53;;;2.70;;
36315;SDS011;22343;50.820;2.666;2023-07-22T08:59:42;5.32;;;2.70;;
36315;SDS011;22343;50.820;2.666;2023-07-22T09:02:26;5.03;;;2.80;;
36315;SDS011;22343;50.820;2.666;2023-07-22T09:05:11;4.78;;;3.00;;
36315;SDS011;22343;50.820;2.666;2023-07-22T09:07:56;5.55;;;2.63;;
36315;SDS011;22343;50.820;2.666;2023-07-22T09:10:40;3.58;;;2.60;;
36315;SDS011;22343;50.820;2.666;2023-07-22T09:13:26;3.65;;;2.55;;
36315;SDS011;22343;50.820;2.666;2023-07-22T09:16:10;3.88;;;2.80;;
36315;SDS011;22343;50.820;2.666;2023-07-22T09:18:57;4.30;;;2.83;;
36315;SDS011;22343;50.820;2.666;2023-07-22T09:21:42;5.32;;;2.45;;
36315;SDS011;22343;50.820;2.666;2023-07-22T09:24:26;3.25;;;2.45;;
36315;SDS011;22343;50.820;2.666;2023-07-22T09:27:13;4.13;;;2.70;;
36315;SDS011;22343;50.820;2.666;2023-07-22T09:29:58;4.53;;;2.60;;
36315;SDS011;22343;50.820;2.666;2023-07-22T09:32:43;3.53;;;2.55;;
36315;SDS011;22343;50.820;2.666;2023-07-22T09:35:29;5.47;;;2.63;;
36315;SDS011;22343;50.820;2.666;2023-07-22T09:38:21;3.05;;;2.60;;
36315;SDS011;22343;50.820;2.666;2023-07-22T09:41:07;4.15;;;2.63;;
36315;SDS011;22343;50.820;2.666;2023-07-22T09:43:52;5.53;;;2.80;;
36315;SDS011;22343;50.820;2.666;2023-07-22T09:46:37;3.72;;;2.50;;
36315;SDS011;22343;50.820;2.666;2023-07-22T09:49:21;3.70;;;2.70;;
36315;SDS011;22343;50.820;2.666;2023-07-22T09:52:08;3.35;;;2.58;;
36315;SDS011;22343;50.820;2.666;2023-07-22T09:54:58;5.20;;;3.03;;
36315;SDS011;22343;50.820;2.666;2023-07-22T09:57:43;4.35;;;3.00;;
36315;SDS011;22343;50.820;2.666;2023-07-22T10:00:30;4.45;;;2.92;;
36315;SDS011;22343;50.820;2.666;2023-07-22T10:03:15;6.35;;;3.10;;
36315;SDS011;22343;50.820;2.666;2023-07-22T10:06:00;4.78;;;2.95;;
36315;SDS011;22343;50.820;2.666;2023-07-22T10:08:46;4.07;;;2.78;;
36315;SDS011;22343;50.820;2.666;2023-07-22T10:11:31;3.70;;;2.90;;
36315;SDS011;22343;50.820;2.666;2023-07-22T10:14:16;3.90;;;2.50;;
36315;SDS011;22343;50.820;2.666;2023-07-22T10:17:01;5.07;;;3.03;;
36315;SDS011;22343;50.820;2.666;2023-07-22T10:19:47;2.72;;;2.53;;
36315;SDS011;22343;50.820;2.666;2023-07-22T10:22:37;4.28;;;2.70;;
36315;SDS011;22343;50.820;2.666;2023-07-22T10:25:21;3.72;;;2.95;;
36315;SDS011;22343;50.820;2.666;2023-07-22T10:28:06;3.40;;;2.60;;
36315;SDS011;22343;50.820;2.666;2023-07-22T10:30:52;3.65;;;2.70;;
36315;SDS011;22343;50.820;2.666;2023-07-22T10:33:36;4.15;;;3.15;;
36315;SDS011;22343;50.820;2.666;2023-07-22T10:36:21;4.38;;;2.70;;
36315;SDS011;22343;50.820;2.666;2023-07-22T10:39:05;6.00;;;2.80;;
36315;SDS011;22343;50.820;2.666;2023-07-22T10:41:49;4.38;;;2.55;;
36315;SDS011;22343;50.820;2.666;2023-07-22T10:44:40;4.63;;;2.70;;
36315;SDS011;22343;50.820;2.666;2023-07-22T10:47:31;3.03;;;2.70;;
36315;SDS011;22343;50.820;2.666;2023-07-22T10:50:17;3.10;;;2.55;;
36315;SDS011;22343;50.820;2.666;2023-07-22T10:53:03;3.30;;;2.38;;
36315;SDS011;22343;50.820;2.666;2023-07-22T11:01:37;5.00;;;2.50;;
36315;SDS011;22343;50.820;2.666;2023-07-22T11:04:25;5.13;;;2.30;;
36315;SDS011;22343;50.820;2.666;2023-07-22T11:07:28;3.45;;;2.20;;
36315;SDS011;22343;50.820;2.666;2023-07-22T11:10:15;2.97;;;2.03;;
36315;SDS011;22343;50.820;2.666;2023-07-22T11:13:01;4.05;;;2.20;;
36315;SDS011;22343;50.820;2.666;2023-07-22T11:15:47;3.03;;;2.10;;
36315;SDS011;22343;50.820;2.666;2023-07-22T11:18:36;2.80;;;2.20;;
36315;SDS011;22343;50.820;2.666;2023-07-22T11:21:24;5.03;;;2.30;;
36315;SDS011;22343;50.820;2.666;2023-07-22T11:24:08;2.80;;;2.22;;
36315;SDS011;22343;50.820;2.666;2023-07-22T11:26:53;3.42;;;1.90;;
36315;SDS011;22343;50.820;2.666;2023-07-22T11:29:37;3.92;;;2.30;;
36315;SDS011;22343;50.820;2.666;2023-07-22T11:32:22;4.60;;;2.10;;
36315;SDS011;22343;50.820;2.666;2023-07-22T11:35:06;3.40;;;2.22;;
36315;SDS011;22343;50.820;2.666;2023-07-22T11:37:59;1.80;;;1.70;;
36315;SDS011;22343;50.820;2.666;2023-07-22T11:40:45;2.80;;;2.15;;
36315;SDS011;22343;50.820;2.666;2023-07-22T11:43:31;3.53;;;2.20;;
36315;SDS011;22343;50.820;2.666;2023-07-22T11:46:15;4.13;;;2.17;;
36315;SDS011;22343;50.820;2.666;2023-07-22T11:49:00;3.80;;;2.25;;
36315;SDS011;22343;50.820;2.666;2023-07-22T11:51:45;3.38;;;2.13;;
36315;SDS011;22343;50.820;2.666;2023-07-22T11:54:30;3.20;;;1.98;;
36315;SDS011;22343;50.820;2.666;2023-07-22T12:00:07;2.55;;;2.30;;
36315;SDS011;22343;50.820;2.666;2023-07-22T12:02:53;3.15;;;2.00;;
36315;SDS011;22343;50.820;2.666;2023-07-22T12:05:41;4.75;;;2.20;;
36315;SDS011;22343;50.820;2.666;2023-07-22T12:08:25;3.55;;;2.10;;
36315;SDS011;22343;50.820;2.666;2023-07-22T12:11:15;4.25;;;2.50;;
36315;SDS011;22343;50.820;2.666;2023-07-22T12:14:10;3.63;;;2.30;;
36315;SDS011;22343;50.820;2.666;2023-07-22T12:16:55;3.88;;;2.53;;
36315;SDS011;22343;50.820;2.666;2023-07-22T12:19:50;3.17;;;2.30;;
36315;SDS011;22343;50.820;2.666;2023-07-22T12:22:35;5.20;;;2.88;;
36315;SDS011;22343;50.820;2.666;2023-07-22T12:25:20;7.55;;;2.70;;
36315;SDS011;22343;50.820;2.666;2023-07-22T12:28:05;3.40;;;2.60;;
36315;SDS011;22343;50.820;2.666;2023-07-22T12:30:50;3.97;;;2.50;;
36315;SDS011;22343;50.820;2.666;2023-07-22T12:33:34;5.05;;;2.67;;
36315;SDS011;22343;50.820;2.666;2023-07-22T12:36:18;3.28;;;2.63;;
36315;SDS011;22343;50.820;2.666;2023-07-22T12:39:03;3.50;;;2.47;;
36315;SDS011;22343;50.820;2.666;2023-07-22T12:41:49;3.50;;;2.33;;
36315;SDS011;22343;50.820;2.666;2023-07-22T12:44:33;3.70;;;2.50;;
36315;SDS011;22343;50.820;2.666;2023-07-22T12:47:17;3.40;;;2.40;;
36315;SDS011;22343;50.820;2.666;2023-07-22T12:50:02;4.22;;;2.70;;
36315;SDS011;22343;50.820;2.666;2023-07-22T12:52:48;4.05;;;2.38;;
36315;SDS011;22343;50.820;2.666;2023-07-22T12:55:32;3.92;;;2.38;;
36315;SDS011;22343;50.820;2.666;2023-07-22T12:58:17;7.47;;;2.70;;
36315;SDS011;22343;50.820;2.666;2023-07-22T13:01:01;3.83;;;2.28;;
36315;SDS011;22343;50.820;2.666;2023-07-22T13:03:45;3.17;;;2.13;;
36315;SDS011;22343;50.820;2.666;2023-07-22T13:06:30;3.22;;;2.30;;
36315;SDS011;22343;50.820;2.666;2023-07-22T13:09:15;3.88;;;2.10;;
36315;SDS011;22343;50.820;2.666;2023-07-22T13:11:59;4.10;;;2.40;;
36315;SDS011;22343;50.820;2.666;2023-07-22T13:14:43;4.65;;;2.50;;
36315;SDS011;22343;50.820;2.666;2023-07-22T13:17:29;3.78;;;2.42;;
36315;SDS011;22343;50.820;2.666;2023-07-22T13:20:13;5.47;;;2.50;;
36315;SDS011;22343;50.820;2.666;2023-07-22T13:22:58;4.05;;;2.53;;
36315;SDS011;22343;50.820;2.666;2023-07-22T13:25:42;5.10;;;2.70;;
36315;SDS011;22343;50.820;2.666;2023-07-22T13:28:27;5.63;;;2.80;;
36315;SDS011;22343;50.820;2.666;2023-07-22T13:31:11;4.47;;;2.58;;
36315;SDS011;22343;50.820;2.666;2023-07-22T13:33:56;3.10;;;2.78;;
36315;SDS011;22343;50.820;2.666;2023-07-22T13:36:40;3.55;;;2.70;;
36315;SDS011;22343;50.820;2.666;2023-07-22T13:39:25;3.72;;;3.00;;
36315;SDS011;22343;50.820;2.666;2023-07-22T13:42:09;3.55;;;2.90;;
36315;SDS011;22343;50.820;2.666;2023-07-22T13:44:54;4.10;;;2.85;;
36315;SDS011;22343;50.820;2.666;2023-07-22T13:47:38;5.00;;;3.17;;
36315;SDS011;22343;50.820;2.666;2023-07-22T13:50:22;4.30;;;3.20;;
36315;SDS011;22343;50.820;2.666;2023-07-22T13:53:07;3.65;;;2.90;;
36315;SDS011;22343;50.820;2.666;2023-07-22T13:55:51;3.25;;;2.92;;
36315;SDS011;22343;50.820;2.666;2023-07-22T13:58:35;4.88;;;2.97;;
36315;SDS011;22343;50.820;2.666;2023-07-22T14:01:20;3.90;;;2.80;;
36315;SDS011;22343;50.820;2.666;2023-07-22T14:04:04;5.07;;;3.15;;
36315;SDS011;22343;50.820;2.666;2023-07-22T14:06:48;4.00;;;2.63;;
36315;SDS011;22343;50.820;2.666;2023-07-22T14:09:34;5.13;;;3.20;;
36315;SDS011;22343;50.820;2.666;2023-07-22T14:12:19;3.85;;;2.78;;
36315;SDS011;22343;50.820;2.666;2023-07-22T14:15:05;5.72;;;3.13;;
36315;SDS011;22343;50.820;2.666;2023-07-22T14:17:51;8.15;;;3.03;;
36315;SDS011;22343;50.820;2.666;2023-07-22T14:20:38;5.28;;;3.25;;
36315;SDS011;22343;50.820;2.666;2023-07-22T14:23:23;5.15;;;3.17;;
36315;SDS011;22343;50.820;2.666;2023-07-22T14:26:09;6.53;;;3.30;;
36315;SDS011;22343;50.820;2.666;2023-07-22T14:28:54;5.38;;;3.63;;
36315;SDS011;22343;50.820;2.666;2023-07-22T14:31:41;5.15;;;3.50;;
36315;SDS011;22343;50.820;2.666;2023-07-22T14:34:27;4.65;;;3.20;;
36315;SDS011;22343;50.820;2.666;2023-07-22T14:37:13;6.00;;;3.40;;
36315;SDS011;22343;50.820;2.666;2023-07-22T14:39:59;4.47;;;3.22;;
36315;SDS011;22343;50.820;2.666;2023-07-22T14:42:44;4.78;;;3.60;;
36315;SDS011;22343;50.820;2.666;2023-07-22T14:45:28;6.05;;;3.33;;
36315;SDS011;22343;50.820;2.666;2023-07-22T14:48:14;5.07;;;3.60;;
36315;SDS011;22343;50.820;2.666;2023-07-22T14:51:00;5.78;;;3.30;;
36315;SDS011;22343;50.820;2.666;2023-07-22T14:53:46;5.28;;;3.67;;
36315;SDS011;22343;50.820;2.666;2023-07-22T14:56:31;4.90;;;3.53;;
36315;SDS011;22343;50.820;2.666;2023-07-22T14:59:17;5.47;;;3.70;;
36315;SDS011;22343;50.820;2.666;2023-07-22T15:02:03;4.22;;;3.53;;
36315;SDS011;22343;50.820;2.666;2023-07-22T15:04:50;5.85;;;3.55;;
36315;SDS011;22343;50.820;2.666;2023-07-22T15:07:34;4.57;;;3.40;;
36315;SDS011;22343;50.820;2.666;2023-07-22T15:10:20;5.75;;;3.50;;
36315;SDS011;22343;50.820;2.666;2023-07-22T15:13:06;4.78;;;3.53;;
36315;SDS011;22343;50.820;2.666;2023-07-22T15:15:55;6.07;;;3.30;;
36315;SDS011;22343;50.820;2.666;2023-07-22T15:18:43;5.32;;;3.60;;
36315;SDS011;22343;50.820;2.666;2023-07-22T15:21:29;4.70;;;3.25;;
36315;SDS011;22343;50.820;2.666;2023-07-22T15:24:14;4.25;;;3.10;;
36315;SDS011;22343;50.820;2.666;2023-07-22T15:26:58;7.10;;;3.22;;
36315;SDS011;22343;50.820;2.666;2023-07-22T15:29:44;7.18;;;3.30;;
36315;SDS011;22343;50.820;2.666;2023-07-22T15:32:28;5.05;;;3.28;;
36315;SDS011;22343;50.820;2.666;2023-07-22T15:35:14;4.45;;;3.20;;
36315;SDS011;22343;50.820;2.666;2023-07-22T15:38:00;6.97;;;3.40;;
36315;SDS011;22343;50.820;2.666;2023-07-22T15:40:45;4.20;;;3.30;;
36315;SDS011;22343;50.820;2.666;2023-07-22T15:43:31;4.47;;;3.33;;
36315;SDS011;22343;50.820;2.666;2023-07-22T15:46:16;6.75;;;3.50;;
36315;SDS011;22343;50.820;2.666;2023-07-22T15:49:01;4.45;;;3.30;;
36315;SDS011;22343;50.820;2.666;2023-07-22T15:51:46;5.90;;;3.30;;
36315;SDS011;22343;50.820;2.666;2023-07-22T15:54:32;4.72;;;3.20;;
36315;SDS011;22343;50.820;2.666;2023-07-22T15:57:17;3.30;;;2.95;;
36315;SDS011;22343;50.820;2.666;2023-07-22T16:00:03;4.63;;;3.13;;
36315;SDS011;22343;50.820;2.666;2023-07-22T16:02:52;4.68;;;3.08;;
36315;SDS011;22343;50.820;2.666;2023-07-22T16:05:38;3.05;;;2.75;;
36315;SDS011;22343;50.820;2.666;2023-07-22T16:08:23;3.53;;;2.80;;
36315;SDS011;22343;50.820;2.666;2023-07-22T16:11:10;3.78;;;3.00;;
36315;SDS011;22343;50.820;2.666;2023-07-22T16:13:55;5.70;;;3.10;;
36315;SDS011;22343;50.820;2.666;2023-07-22T16:16:41;5.32;;;2.80;;
36315;SDS011;22343;50.820;2.666;2023-07-22T16:19:26;3.53;;;2.97;;
36315;SDS011;22343;50.820;2.666;2023-07-22T16:22:12;3.92;;;2.90;;
36315;SDS011;22343;50.820;2.666;2023-07-22T16:24:58;3.95;;;3.08;;
36315;SDS011;22343;50.820;2.666;2023-07-22T16:27:43;4.10;;;3.30;;
36315;SDS011;22343;50.820;2.666;2023-07-22T16:30:27;4.85;;;3.70;;
36315;SDS011;22343;50.820;2.666;2023-07-22T16:33:13;6.53;;;3.45;;
36315;SDS011;22343;50.820;2.666;2023-07-22T16:35:58;5.97;;;3.80;;
36315;SDS011;22343;50.820;2.666;2023-07-22T16:38:44;4.50;;;3.88;;
36315;SDS011;22343;50.820;2.666;2023-07-22T16:41:29;5.35;;;3.95;;